22:45
Airports
Links
Donate
Help keep this website running!
PayPal
Bitcoin
METAR
LEMD 222230Z VRB01KT CAVOK 29/11 Q1016 NOSIG
Current Weather Conditions at LEMD
VFR 22:30:00 22-08-17
Altimeter:30.00 hg
Temp:29.0°c 84°f
Dew point:11.0°c 52°f
Wind:1 knots, 1.2 mph, 1 m/s,
Variable direction
Visibility:6.21 statute miles
(CAVOK)
No significant weather changes expected within 2 hours.
Past METAR reports
VFR 22:00:00 22-08-17
Altimeter:29.97 hg
Temp:29.0°c 84°f
Dew point:12.0°c 54°f
Wind:3 knots, 3.5 mph, 2 m/s, from 10°
Visibility:6.21 statute miles
(CAVOK)
No significant weather changes expected within 2 hours.
LEMD 222200Z 01003KT CAVOK 29/12 Q1015 NOSIG
VFR 21:30:00 22-08-17
Altimeter:29.97 hg
Temp:33.0°c 91°f
Dew point:11.0°c 52°f
Wind:5 knots, 5.8 mph, 3 m/s, from 270°
Visibility:6.21 statute miles
(CAVOK)
No significant weather changes expected within 2 hours.
LEMD 222130Z 27005KT CAVOK 33/11 Q1015 NOSIG
VFR 21:00:00 22-08-17
Altimeter:29.97 hg
Temp:34.0°c 93°f
Dew point:11.0°c 52°f
Wind:5 knots, 5.8 mph, 3 m/s, from 260°
Visibility:6.21 statute miles
(CAVOK)
No significant weather changes expected within 2 hours.
LEMD 222100Z 26005KT 220V310 CAVOK 34/11 Q1015 NOSIG
VFR 20:30:00 22-08-17
Altimeter:29.97 hg
Temp:34.0°c 93°f
Dew point:10.0°c 50°f
Wind:4 knots, 4.6 mph, 2 m/s, from 250°
Visibility:6.21 statute miles
(CAVOK)
No significant weather changes expected within 2 hours.
LEMD 222030Z 25004KT 210V320 CAVOK 34/10 Q1015 NOSIG
VFR 20:00:00 22-08-17
Altimeter:29.97 hg
Temp:34.0°c 93°f
Dew point:10.0°c 50°f
Wind:3 knots, 3.5 mph, 2 m/s, from 200°
Visibility:6.21 statute miles
(CAVOK)
No significant weather changes expected within 2 hours.
LEMD 222000Z 20003KT 170V230 CAVOK 34/10 Q1015 NOSIG
VFR 19:30:00 22-08-17
Altimeter:29.97 hg
Temp:34.0°c 93°f
Dew point:10.0°c 50°f
Wind:5 knots, 5.8 mph, 3 m/s, from 230°
Visibility:6.21 statute miles
(CAVOK)
No significant weather changes expected within 2 hours.
LEMD 221930Z 23005KT CAVOK 34/10 Q1015 NOSIG
TAF
TAF AMD LEMD 221908Z 2219/2324 23007G17KT CAVOK TX37/2316Z TN20/2306Z BECMG 2219/2220 VRB05KT TEMPO 2312/2317 22010G20KT PROB40 TEMPO 2320/2324 01010KT
Forecast at LEMD
19:00 22-08-17 to 00:00 24-08-17
Wind:7 Knots from 230°
Visibility:6.21 statute miles
NSC
BECMG 19:00 22-08-17 to 00:00 24-08-17
Wind:5 Knots from 360°
Visibility:6.21 statute miles
NSC
TEMPO 12:00 23-08-17 to 17:00 23-08-17
Wind:10 Knots from 220°
TEMPO 20:00 23-08-17 to 00:00 24-08-17
40%
Wind:10 Knots from 10°